sensor_id;sensor_type;location;lat;lon;timestamp;temperature;humidity
27848;DHT22;15212;48.830;8.730;2023-02-03T00:00:07;4.60;99.90
27848;DHT22;15212;48.830;8.730;2023-02-03T00:02:36;4.60;99.90
27848;DHT22;15212;48.830;8.730;2023-02-03T00:05:04;4.60;99.90
27848;DHT22;15212;48.830;8.730;2023-02-03T00:07:34;4.60;99.90
27848;DHT22;15212;48.830;8.730;2023-02-03T00:10:04;4.60;99.90
27848;DHT22;15212;48.830;8.730;2023-02-03T00:12:33;4.60;99.90
27848;DHT22;15212;48.830;8.730;2023-02-03T00:15:01;4.60;99.90
27848;DHT22;15212;48.830;8.730;2023-02-03T00:17:30;4.60;99.90
27848;DHT22;15212;48.830;8.730;2023-02-03T00:19:58;4.60;99.90
27848;DHT22;15212;48.830;8.730;2023-02-03T00:22:27;4.60;99.90
27848;DHT22;15212;48.830;8.730;2023-02-03T00:24:55;4.60;99.90
27848;DHT22;15212;48.830;8.730;2023-02-03T00:27:23;4.60;99.90
27848;DHT22;15212;48.830;8.730;2023-02-03T00:29:52;4.60;99.90
27848;DHT22;15212;48.830;8.730;2023-02-03T00:32:20;4.60;99.90
27848;DHT22;15212;48.830;8.730;2023-02-03T00:34:49;4.60;99.90
27848;DHT22;15212;48.830;8.730;2023-02-03T00:37:17;4.60;99.90
27848;DHT22;15212;48.830;8.730;2023-02-03T00:39:45;4.60;99.90
27848;DHT22;15212;48.830;8.730;2023-02-03T00:42:14;4.60;99.90
27848;DHT22;15212;48.830;8.730;2023-02-03T00:44:43;4.60;99.90
27848;DHT22;15212;48.830;8.730;2023-02-03T00:47:11;4.50;99.90
27848;DHT22;15212;48.830;8.730;2023-02-03T00:49:39;4.50;99.90
27848;DHT22;15212;48.830;8.730;2023-02-03T00:52:08;4.60;99.90
27848;DHT22;15212;48.830;8.730;2023-02-03T00:54:36;4.60;99.90
27848;DHT22;15212;48.830;8.730;2023-02-03T00:57:05;4.50;99.90
27848;DHT22;15212;48.830;8.730;2023-02-03T00:59:33;4.60;99.90
27848;DHT22;15212;48.830;8.730;2023-02-03T01:02:01;4.60;99.90
27848;DHT22;15212;48.830;8.730;2023-02-03T01:04:30;4.60;99.90
27848;DHT22;15212;48.830;8.730;2023-02-03T01:06:58;4.60;99.90
27848;DHT22;15212;48.830;8.730;2023-02-03T01:09:27;4.60;99.90
27848;DHT22;15212;48.830;8.730;2023-02-03T01:11:55;4.60;99.90
27848;DHT22;15212;48.830;8.730;2023-02-03T01:14:23;4.60;99.90
27848;DHT22;15212;48.830;8.730;2023-02-03T01:16:52;4.60;99.90
27848;DHT22;15212;48.830;8.730;2023-02-03T01:19:20;4.60;99.90
27848;DHT22;15212;48.830;8.730;2023-02-03T01:21:49;4.60;99.90
27848;DHT22;15212;48.830;8.730;2023-02-03T01:24:17;4.60;99.90
27848;DHT22;15212;48.830;8.730;2023-02-03T01:26:46;4.60;99.90
27848;DHT22;15212;48.830;8.730;2023-02-03T01:29:14;4.60;99.90
27848;DHT22;15212;48.830;8.730;2023-02-03T01:31:42;4.60;99.90
27848;DHT22;15212;48.830;8.730;2023-02-03T01:34:12;4.60;99.90
27848;DHT22;15212;48.830;8.730;2023-02-03T01:36:43;4.60;99.90
27848;DHT22;15212;48.830;8.730;2023-02-03T01:39:12;4.60;99.90
27848;DHT22;15212;48.830;8.730;2023-02-03T01:41:41;4.60;99.90
27848;DHT22;15212;48.830;8.730;2023-02-03T01:44:44;4.60;99.90
27848;DHT22;15212;48.830;8.730;2023-02-03T01:47:26;4.60;99.90
27848;DHT22;15212;48.830;8.730;2023-02-03T01:50:11;4.60;99.90
27848;DHT22;15212;48.830;8.730;2023-02-03T01:52:50;4.60;99.90
27848;DHT22;15212;48.830;8.730;2023-02-03T01:55:30;4.60;99.90
27848;DHT22;15212;48.830;8.730;2023-02-03T02:00:42;4.60;99.90
27848;DHT22;15212;48.830;8.730;2023-02-03T02:03:11;4.70;99.90
27848;DHT22;15212;48.830;8.730;2023-02-03T02:05:48;4.60;99.90
27848;DHT22;15212;48.830;8.730;2023-02-03T02:08:19;4.70;99.90
27848;DHT22;15212;48.830;8.730;2023-02-03T02:10:49;4.70;99.90
27848;DHT22;15212;48.830;8.730;2023-02-03T02:13:18;4.70;99.90
27848;DHT22;15212;48.830;8.730;2023-02-03T02:16:05;4.60;99.90
27848;DHT22;15212;48.830;8.730;2023-02-03T02:28:00;4.60;99.90
27848;DHT22;15212;48.830;8.730;2023-02-03T02:33:10;4.60;99.90
27848;DHT22;15212;48.830;8.730;2023-02-03T02:35:50;4.60;99.90
27848;DHT22;15212;48.830;8.730;2023-02-03T02:38:34;4.60;99.90
27848;DHT22;15212;48.830;8.730;2023-02-03T02:41:22;4.60;99.90
27848;DHT22;15212;48.830;8.730;2023-02-03T02:46:55;4.50;99.90
27848;DHT22;15212;48.830;8.730;2023-02-03T02:49:32;4.60;99.90
27848;DHT22;15212;48.830;8.730;2023-02-03T02:52:09;4.60;99.90
27848;DHT22;15212;48.830;8.730;2023-02-03T02:54:43;4.60;99.90
27848;DHT22;15212;48.830;8.730;2023-02-03T02:57:14;4.60;99.90
27848;DHT22;15212;48.830;8.730;2023-02-03T02:59:45;4.60;99.90
27848;DHT22;15212;48.830;8.730;2023-02-03T03:02:14;4.60;99.90
27848;DHT22;15212;48.830;8.730;2023-02-03T03:04:45;4.60;99.90
27848;DHT22;15212;48.830;8.730;2023-02-03T03:07:21;4.60;99.90
27848;DHT22;15212;48.830;8.730;2023-02-03T03:09:53;4.60;99.90
27848;DHT22;15212;48.830;8.730;2023-02-03T03:12:33;4.60;99.90
27848;DHT22;15212;48.830;8.730;2023-02-03T03:15:01;4.70;99.90
27848;DHT22;15212;48.830;8.730;2023-02-03T03:17:33;4.70;99.90
27848;DHT22;15212;48.830;8.730;2023-02-03T03:20:07;4.70;99.90
27848;DHT22;15212;48.830;8.730;2023-02-03T03:22:40;4.70;99.90
27848;DHT22;15212;48.830;8.730;2023-02-03T03:25:18;4.80;99.90
27848;DHT22;15212;48.830;8.730;2023-02-03T03:27:50;4.80;99.90
27848;DHT22;15212;48.830;8.730;2023-02-03T03:30:22;4.80;99.90
27848;DHT22;15212;48.830;8.730;2023-02-03T03:32:53;4.80;99.90
27848;DHT22;15212;48.830;8.730;2023-02-03T03:35:27;4.80;99.90
27848;DHT22;15212;48.830;8.730;2023-02-03T03:38:13;4.80;99.90
27848;DHT22;15212;48.830;8.730;2023-02-03T03:40:54;4.80;99.90
27848;DHT22;15212;48.830;8.730;2023-02-03T03:43:27;4.80;99.90
27848;DHT22;15212;48.830;8.730;2023-02-03T03:46:03;4.80;99.90
27848;DHT22;15212;48.830;8.730;2023-02-03T03:48:39;4.80;99.90
27848;DHT22;15212;48.830;8.730;2023-02-03T03:54:06;4.80;99.90
27848;DHT22;15212;48.830;8.730;2023-02-03T03:56:45;4.80;99.90
27848;DHT22;15212;48.830;8.730;2023-02-03T03:59:19;4.80;99.90
27848;DHT22;15212;48.830;8.730;2023-02-03T04:01:50;4.90;99.90
27848;DHT22;15212;48.830;8.730;2023-02-03T04:04:19;4.90;99.90
27848;DHT22;15212;48.830;8.730;2023-02-03T04:06:47;4.80;99.90
27848;DHT22;15212;48.830;8.730;2023-02-03T04:09:16;4.80;99.90
27848;DHT22;15212;48.830;8.730;2023-02-03T04:11:44;4.80;99.90
27848;DHT22;15212;48.830;8.730;2023-02-03T04:14:29;4.80;99.90
27848;DHT22;15212;48.830;8.730;2023-02-03T04:17:00;4.80;99.90
27848;DHT22;15212;48.830;8.730;2023-02-03T04:19:28;4.80;99.90
27848;DHT22;15212;48.830;8.730;2023-02-03T04:21:57;4.70;99.90
27848;DHT22;15212;48.830;8.730;2023-02-03T04:24:25;4.80;99.90
27848;DHT22;15212;48.830;8.730;2023-02-03T04:26:54;4.80;99.90
27848;DHT22;15212;48.830;8.730;2023-02-03T04:29:24;4.70;99.90
27848;DHT22;15212;48.830;8.730;2023-02-03T04:31:52;4.70;99.90
27848;DHT22;15212;48.830;8.730;2023-02-03T04:34:21;4.70;99.90
27848;DHT22;15212;48.830;8.730;2023-02-03T04:36:49;4.70;99.90
27848;DHT22;15212;48.830;8.730;2023-02-03T04:39:17;4.70;99.90
27848;DHT22;15212;48.830;8.730;2023-02-03T04:41:46;4.70;99.90
27848;DHT22;15212;48.830;8.730;2023-02-03T04:44:14;4.70;99.90
27848;DHT22;15212;48.830;8.730;2023-02-03T04:46:42;4.70;99.90
27848;DHT22;15212;48.830;8.730;2023-02-03T04:49:11;4.70;99.90
27848;DHT22;15212;48.830;8.730;2023-02-03T04:51:39;4.70;99.90
27848;DHT22;15212;48.830;8.730;2023-02-03T04:54:10;4.70;99.90
27848;DHT22;15212;48.830;8.730;2023-02-03T04:56:38;4.70;99.90
27848;DHT22;15212;48.830;8.730;2023-02-03T04:59:07;4.70;99.90
27848;DHT22;15212;48.830;8.730;2023-02-03T05:01:36;4.70;99.90
27848;DHT22;15212;48.830;8.730;2023-02-03T05:04:04;4.70;99.90
27848;DHT22;15212;48.830;8.730;2023-02-03T05:06:33;4.70;99.90
27848;DHT22;15212;48.830;8.730;2023-02-03T05:09:02;4.70;99.90
27848;DHT22;15212;48.830;8.730;2023-02-03T05:11:30;4.70;99.90
27848;DHT22;15212;48.830;8.730;2023-02-03T05:13:58;4.70;99.90
27848;DHT22;15212;48.830;8.730;2023-02-03T05:16:27;4.70;99.90
27848;DHT22;15212;48.830;8.730;2023-02-03T05:18:55;4.70;99.90
27848;DHT22;15212;48.830;8.730;2023-02-03T05:21:24;4.70;99.90
27848;DHT22;15212;48.830;8.730;2023-02-03T05:23:52;4.70;99.90
27848;DHT22;15212;48.830;8.730;2023-02-03T05:26:20;4.70;99.90
27848;DHT22;15212;48.830;8.730;2023-02-03T05:28:50;4.70;99.90
27848;DHT22;15212;48.830;8.730;2023-02-03T05:31:18;4.70;99.90
27848;DHT22;15212;48.830;8.730;2023-02-03T05:33:46;4.80;99.90
27848;DHT22;15212;48.830;8.730;2023-02-03T05:36:15;4.80;99.90
27848;DHT22;15212;48.830;8.730;2023-02-03T05:38:43;4.80;99.90
27848;DHT22;15212;48.830;8.730;2023-02-03T05:41:11;4.80;99.90
27848;DHT22;15212;48.830;8.730;2023-02-03T05:43:57;4.80;99.90
27848;DHT22;15212;48.830;8.730;2023-02-03T05:46:25;4.80;99.90
27848;DHT22;15212;48.830;8.730;2023-02-03T05:48:54;4.80;99.90
27848;DHT22;15212;48.830;8.730;2023-02-03T05:51:22;4.80;99.90
27848;DHT22;15212;48.830;8.730;2023-02-03T05:53:51;4.80;99.90
27848;DHT22;15212;48.830;8.730;2023-02-03T05:56:19;4.90;99.90
27848;DHT22;15212;48.830;8.730;2023-02-03T05:58:47;4.80;99.90
27848;DHT22;15212;48.830;8.730;2023-02-03T06:01:18;4.80;99.90
27848;DHT22;15212;48.830;8.730;2023-02-03T06:03:46;4.90;99.90
27848;DHT22;15212;48.830;8.730;2023-02-03T06:06:15;4.90;99.90
27848;DHT22;15212;48.830;8.730;2023-02-03T06:08:44;4.90;99.90
27848;DHT22;15212;48.830;8.730;2023-02-03T06:11:12;4.90;99.90
27848;DHT22;15212;48.830;8.730;2023-02-03T06:13:41;4.90;99.90
27848;DHT22;15212;48.830;8.730;2023-02-03T06:16:09;4.90;99.90
27848;DHT22;15212;48.830;8.730;2023-02-03T06:18:37;4.90;99.90
27848;DHT22;15212;48.830;8.730;2023-02-03T06:21:06;4.90;99.90
27848;DHT22;15212;48.830;8.730;2023-02-03T06:23:34;5.00;99.90
27848;DHT22;15212;48.830;8.730;2023-02-03T06:26:02;5.00;99.90
27848;DHT22;15212;48.830;8.730;2023-02-03T06:28:31;5.00;99.90
27848;DHT22;15212;48.830;8.730;2023-02-03T06:30:59;5.00;99.90
27848;DHT22;15212;48.830;8.730;2023-02-03T06:33:28;4.90;99.90
27848;DHT22;15212;48.830;8.730;2023-02-03T06:35:56;4.90;99.90
27848;DHT22;15212;48.830;8.730;2023-02-03T06:38:25;4.90;99.90
27848;DHT22;15212;48.830;8.730;2023-02-03T06:40:53;4.90;99.90
27848;DHT22;15212;48.830;8.730;2023-02-03T06:43:22;5.00;99.90
27848;DHT22;15212;48.830;8.730;2023-02-03T06:45:50;5.00;99.90
27848;DHT22;15212;48.830;8.730;2023-02-03T06:48:19;4.90;99.90
27848;DHT22;15212;48.830;8.730;2023-02-03T06:50:47;4.90;99.90
27848;DHT22;15212;48.830;8.730;2023-02-03T06:53:15;4.90;99.90
27848;DHT22;15212;48.830;8.730;2023-02-03T06:55:44;4.90;99.90
27848;DHT22;15212;48.830;8.730;2023-02-03T06:58:13;4.90;99.90
27848;DHT22;15212;48.830;8.730;2023-02-03T07:00:41;4.90;99.90
27848;DHT22;15212;48.830;8.730;2023-02-03T07:03:10;4.90;99.90
27848;DHT22;15212;48.830;8.730;2023-02-03T07:05:38;5.00;99.90
27848;DHT22;15212;48.830;8.730;2023-02-03T07:08:07;4.90;99.90
27848;DHT22;15212;48.830;8.730;2023-02-03T07:10:35;4.90;99.90
27848;DHT22;15212;48.830;8.730;2023-02-03T07:13:05;4.90;99.90
27848;DHT22;15212;48.830;8.730;2023-02-03T07:15:34;4.90;99.90
27848;DHT22;15212;48.830;8.730;2023-02-03T07:18:02;4.90;99.90
27848;DHT22;15212;48.830;8.730;2023-02-03T07:20:30;4.90;99.90
27848;DHT22;15212;48.830;8.730;2023-02-03T07:22:59;4.90;99.90
27848;DHT22;15212;48.830;8.730;2023-02-03T07:25:27;4.90;99.90
27848;DHT22;15212;48.830;8.730;2023-02-03T07:27:56;4.90;99.90
27848;DHT22;15212;48.830;8.730;2023-02-03T07:30:24;4.90;99.90
27848;DHT22;15212;48.830;8.730;2023-02-03T07:32:52;4.90;99.90
27848;DHT22;15212;48.830;8.730;2023-02-03T07:35:21;5.00;99.90
27848;DHT22;15212;48.830;8.730;2023-02-03T07:37:49;5.00;99.90
27848;DHT22;15212;48.830;8.730;2023-02-03T07:40:18;5.00;99.90
27848;DHT22;15212;48.830;8.730;2023-02-03T07:42:48;5.00;99.90
27848;DHT22;15212;48.830;8.730;2023-02-03T07:45:17;5.00;99.90
27848;DHT22;15212;48.830;8.730;2023-02-03T07:47:47;5.00;99.90
27848;DHT22;15212;48.830;8.730;2023-02-03T07:50:16;5.00;99.90
27848;DHT22;15212;48.830;8.730;2023-02-03T07:52:44;5.00;99.90
27848;DHT22;15212;48.830;8.730;2023-02-03T07:55:13;5.00;99.90
27848;DHT22;15212;48.830;8.730;2023-02-03T07:57:41;5.00;99.90
27848;DHT22;15212;48.830;8.730;2023-02-03T08:00:12;5.00;99.90
27848;DHT22;15212;48.830;8.730;2023-02-03T08:02:42;5.00;99.90
27848;DHT22;15212;48.830;8.730;2023-02-03T08:05:11;5.00;99.90
27848;DHT22;15212;48.830;8.730;2023-02-03T08:07:40;5.00;99.90
27848;DHT22;15212;48.830;8.730;2023-02-03T08:10:10;5.00;99.90
27848;DHT22;15212;48.830;8.730;2023-02-03T08:12:41;5.00;99.90
27848;DHT22;15212;48.830;8.730;2023-02-03T08:15:10;5.00;99.90
27848;DHT22;15212;48.830;8.730;2023-02-03T08:17:38;5.00;99.90
27848;DHT22;15212;48.830;8.730;2023-02-03T08:20:08;5.00;99.90
27848;DHT22;15212;48.830;8.730;2023-02-03T08:22:37;5.10;99.90
27848;DHT22;15212;48.830;8.730;2023-02-03T08:25:07;5.00;99.90
27848;DHT22;15212;48.830;8.730;2023-02-03T08:27:35;5.10;99.90
27848;DHT22;15212;48.830;8.730;2023-02-03T08:30:05;5.10;99.90
27848;DHT22;15212;48.830;8.730;2023-02-03T08:32:34;5.10;99.90
27848;DHT22;15212;48.830;8.730;2023-02-03T08:35:02;5.00;99.90
27848;DHT22;15212;48.830;8.730;2023-02-03T08:37:31;5.00;99.90
27848;DHT22;15212;48.830;8.730;2023-02-03T08:39:59;5.10;99.90
27848;DHT22;15212;48.830;8.730;2023-02-03T08:42:28;5.10;99.90
27848;DHT22;15212;48.830;8.730;2023-02-03T08:44:56;5.10;99.90
27848;DHT22;15212;48.830;8.730;2023-02-03T08:47:25;5.10;99.90
27848;DHT22;15212;48.830;8.730;2023-02-03T08:49:54;5.10;99.90
27848;DHT22;15212;48.830;8.730;2023-02-03T08:52:22;5.20;99.90
27848;DHT22;15212;48.830;8.730;2023-02-03T08:54:50;5.20;99.90
27848;DHT22;15212;48.830;8.730;2023-02-03T08:57:19;5.20;99.90
27848;DHT22;15212;48.830;8.730;2023-02-03T08:59:47;5.20;99.90
27848;DHT22;15212;48.830;8.730;2023-02-03T09:02:18;5.20;99.90
27848;DHT22;15212;48.830;8.730;2023-02-03T09:04:46;5.20;99.90
27848;DHT22;15212;48.830;8.730;2023-02-03T09:07:16;5.20;99.90
27848;DHT22;15212;48.830;8.730;2023-02-03T09:09:44;5.20;99.90
27848;DHT22;15212;48.830;8.730;2023-02-03T09:12:13;5.30;99.90
27848;DHT22;15212;48.830;8.730;2023-02-03T09:14:41;5.30;99.90
27848;DHT22;15212;48.830;8.730;2023-02-03T09:17:10;5.30;99.90
27848;DHT22;15212;48.830;8.730;2023-02-03T09:19:38;5.20;99.90
27848;DHT22;15212;48.830;8.730;2023-02-03T09:22:07;5.20;99.90
27848;DHT22;15212;48.830;8.730;2023-02-03T09:24:35;5.30;99.90
27848;DHT22;15212;48.830;8.730;2023-02-03T09:27:03;5.30;99.90
27848;DHT22;15212;48.830;8.730;2023-02-03T09:29:32;5.30;99.90
27848;DHT22;15212;48.830;8.730;2023-02-03T09:32:00;5.40;99.90
27848;DHT22;15212;48.830;8.730;2023-02-03T09:34:30;5.40;99.90
27848;DHT22;15212;48.830;8.730;2023-02-03T09:36:59;5.40;99.90
27848;DHT22;15212;48.830;8.730;2023-02-03T09:39:27;5.40;99.90
27848;DHT22;15212;48.830;8.730;2023-02-03T09:44:43;5.40;99.90
27848;DHT22;15212;48.830;8.730;2023-02-03T09:47:15;5.40;99.90
27848;DHT22;15212;48.830;8.730;2023-02-03T09:49:57;5.40;99.90
27848;DHT22;15212;48.830;8.730;2023-02-03T09:52:37;5.50;99.90
27848;DHT22;15212;48.830;8.730;2023-02-03T09:58:08;5.50;99.90
27848;DHT22;15212;48.830;8.730;2023-02-03T10:09:12;5.60;99.90
27848;DHT22;15212;48.830;8.730;2023-02-03T10:17:38;5.70;99.90
27848;DHT22;15212;48.830;8.730;2023-02-03T10:20:17;5.80;99.90
27848;DHT22;15212;48.830;8.730;2023-02-03T10:22:53;5.90;99.90
27848;DHT22;15212;48.830;8.730;2023-02-03T10:25:42;5.80;99.90
27848;DHT22;15212;48.830;8.730;2023-02-03T10:28:17;5.80;99.90
27848;DHT22;15212;48.830;8.730;2023-02-03T10:30:53;5.80;99.90
27848;DHT22;15212;48.830;8.730;2023-02-03T10:33:25;5.80;99.90
27848;DHT22;15212;48.830;8.730;2023-02-03T10:36:18;5.90;99.90
27848;DHT22;15212;48.830;8.730;2023-02-03T10:39:00;5.90;99.90
27848;DHT22;15212;48.830;8.730;2023-02-03T10:41:47;5.90;99.90
27848;DHT22;15212;48.830;8.730;2023-02-03T10:44:15;5.90;99.90
27848;DHT22;15212;48.830;8.730;2023-02-03T10:46:44;5.80;99.90
27848;DHT22;15212;48.830;8.730;2023-02-03T10:49:13;5.70;99.90
27848;DHT22;15212;48.830;8.730;2023-02-03T10:51:47;5.60;99.90
27848;DHT22;15212;48.830;8.730;2023-02-03T10:57:06;5.50;99.90
27848;DHT22;15212;48.830;8.730;2023-02-03T10:59:44;5.50;99.90
27848;DHT22;15212;48.830;8.730;2023-02-03T11:02:24;5.60;99.90
27848;DHT22;15212;48.830;8.730;2023-02-03T11:07:47;5.70;99.90
27848;DHT22;15212;48.830;8.730;2023-02-03T11:10:33;5.80;99.90
27848;DHT22;15212;48.830;8.730;2023-02-03T11:16:02;5.80;99.90
27848;DHT22;15212;48.830;8.730;2023-02-03T11:18:46;5.90;99.90
27848;DHT22;15212;48.830;8.730;2023-02-03T11:21:47;6.00;99.90
27848;DHT22;15212;48.830;8.730;2023-02-03T11:24:25;5.90;99.90
27848;DHT22;15212;48.830;8.730;2023-02-03T11:27:00;5.90;99.90
27848;DHT22;15212;48.830;8.730;2023-02-03T11:29:42;5.90;99.90
27848;DHT22;15212;48.830;8.730;2023-02-03T11:32:32;5.80;99.90
27848;DHT22;15212;48.830;8.730;2023-02-03T11:35:02;5.80;99.90
27848;DHT22;15212;48.830;8.730;2023-02-03T11:37:46;5.80;99.90
27848;DHT22;15212;48.830;8.730;2023-02-03T11:40:21;5.80;99.90
27848;DHT22;15212;48.830;8.730;2023-02-03T11:45:37;5.70;99.90
27848;DHT22;15212;48.830;8.730;2023-02-03T11:51:03;5.80;99.90
27848;DHT22;15212;48.830;8.730;2023-02-03T11:54:09;5.80;99.90
27848;DHT22;15212;48.830;8.730;2023-02-03T11:56:56;5.70;99.90
27848;DHT22;15212;48.830;8.730;2023-02-03T12:03:04;5.70;99.90
27848;DHT22;15212;48.830;8.730;2023-02-03T12:05:53;5.70;99.90
27848;DHT22;15212;48.830;8.730;2023-02-03T12:08:50;5.80;99.90
27848;DHT22;15212;48.830;8.730;2023-02-03T12:11:25;5.90;99.90
27848;DHT22;15212;48.830;8.730;2023-02-03T12:14:14;5.90;99.90
27848;DHT22;15212;48.830;8.730;2023-02-03T12:28:49;6.10;99.90
27848;DHT22;15212;48.830;8.730;2023-02-03T12:31:48;6.10;99.90
27848;DHT22;15212;48.830;8.730;2023-02-03T12:34:23;6.20;99.90
27848;DHT22;15212;48.830;8.730;2023-02-03T12:37:01;6.20;99.90
27848;DHT22;15212;48.830;8.730;2023-02-03T12:40:12;6.20;99.90
27848;DHT22;15212;48.830;8.730;2023-02-03T12:42:31;6.20;99.90
27848;DHT22;15212;48.830;8.730;2023-02-03T12:45:16;6.20;99.90
27848;DHT22;15212;48.830;8.730;2023-02-03T12:48:08;6.20;99.90
27848;DHT22;15212;48.830;8.730;2023-02-03T12:50:39;6.10;99.90
27848;DHT22;15212;48.830;8.730;2023-02-03T12:53:30;6.20;99.90
27848;DHT22;15212;48.830;8.730;2023-02-03T12:56:06;6.20;99.90
27848;DHT22;15212;48.830;8.730;2023-02-03T12:58:44;6.20;99.90
27848;DHT22;15212;48.830;8.730;2023-02-03T13:01:31;6.20;99.90
27848;DHT22;15212;48.830;8.730;2023-02-03T13:04:16;6.20;99.90
27848;DHT22;15212;48.830;8.730;2023-02-03T13:09:48;6.10;99.90
27848;DHT22;15212;48.830;8.730;2023-02-03T13:12:27;6.10;99.90
27848;DHT22;15212;48.830;8.730;2023-02-03T13:15:18;6.10;99.90
27848;DHT22;15212;48.830;8.730;2023-02-03T13:20:36;6.00;99.90
27848;DHT22;15212;48.830;8.730;2023-02-03T13:23:06;6.10;99.90
27848;DHT22;15212;48.830;8.730;2023-02-03T13:25:48;6.10;99.90
27848;DHT22;15212;48.830;8.730;2023-02-03T13:28:39;6.10;99.90
27848;DHT22;15212;48.830;8.730;2023-02-03T13:37:02;6.10;99.90
27848;DHT22;15212;48.830;8.730;2023-02-03T13:42:44;6.00;99.90
27848;DHT22;15212;48.830;8.730;2023-02-03T13:45:46;5.90;99.90
27848;DHT22;15212;48.830;8.730;2023-02-03T13:48:21;6.00;99.90
27848;DHT22;15212;48.830;8.730;2023-02-03T13:51:14;6.00;99.90
27848;DHT22;15212;48.830;8.730;2023-02-03T13:53:46;6.00;99.90
27848;DHT22;15212;48.830;8.730;2023-02-03T13:56:23;6.00;99.90
27848;DHT22;15212;48.830;8.730;2023-02-03T14:01:45;5.90;99.90
27848;DHT22;15212;48.830;8.730;2023-02-03T14:07:00;5.90;99.90
27848;DHT22;15212;48.830;8.730;2023-02-03T14:23:06;5.70;99.90
27848;DHT22;15212;48.830;8.730;2023-02-03T14:28:19;5.70;99.90
27848;DHT22;15212;48.830;8.730;2023-02-03T14:31:09;5.70;99.90
27848;DHT22;15212;48.830;8.730;2023-02-03T14:33:55;5.80;99.90
27848;DHT22;15212;48.830;8.730;2023-02-03T14:36:41;5.80;99.90
27848;DHT22;15212;48.830;8.730;2023-02-03T14:50:32;5.70;99.90
27848;DHT22;15212;48.830;8.730;2023-02-03T14:59:45;5.80;99.90
27848;DHT22;15212;48.830;8.730;2023-02-03T15:02:20;5.80;99.90
27848;DHT22;15212;48.830;8.730;2023-02-03T15:07:45;5.70;99.90
27848;DHT22;15212;48.830;8.730;2023-02-03T15:10:26;5.70;99.90
27848;DHT22;15212;48.830;8.730;2023-02-03T15:12:52;5.70;99.90
27848;DHT22;15212;48.830;8.730;2023-02-03T15:15:30;5.70;99.90
27848;DHT22;15212;48.830;8.730;2023-02-03T15:18:19;5.70;99.90
27848;DHT22;15212;48.830;8.730;2023-02-03T15:20:53;5.70;99.90
27848;DHT22;15212;48.830;8.730;2023-02-03T15:23:35;5.70;99.90
27848;DHT22;15212;48.830;8.730;2023-02-03T15:25:59;5.70;99.90
27848;DHT22;15212;48.830;8.730;2023-02-03T15:28:29;5.70;99.90
27848;DHT22;15212;48.830;8.730;2023-02-03T15:31:06;5.70;99.90
27848;DHT22;15212;48.830;8.730;2023-02-03T15:33:43;5.70;99.90
27848;DHT22;15212;48.830;8.730;2023-02-03T15:36:18;5.70;99.90
27848;DHT22;15212;48.830;8.730;2023-02-03T15:41:57;5.70;99.90
27848;DHT22;15212;48.830;8.730;2023-02-03T15:44:57;5.70;99.90
27848;DHT22;15212;48.830;8.730;2023-02-03T15:55:53;5.60;99.90
27848;DHT22;15212;48.830;8.730;2023-02-03T15:58:27;5.60;99.90
27848;DHT22;15212;48.830;8.730;2023-02-03T16:01:07;5.60;99.90
27848;DHT22;15212;48.830;8.730;2023-02-03T16:03:49;5.60;99.90
27848;DHT22;15212;48.830;8.730;2023-02-03T16:06:24;5.60;99.90
27848;DHT22;15212;48.830;8.730;2023-02-03T16:09:06;5.60;99.90
27848;DHT22;15212;48.830;8.730;2023-02-03T16:11:37;5.60;99.90
27848;DHT22;15212;48.830;8.730;2023-02-03T16:14:09;5.60;99.90
27848;DHT22;15212;48.830;8.730;2023-02-03T16:16:44;5.60;99.90
27848;DHT22;15212;48.830;8.730;2023-02-03T16:19:21;5.60;99.90
27848;DHT22;15212;48.830;8.730;2023-02-03T16:21:53;5.60;99.90
27848;DHT22;15212;48.830;8.730;2023-02-03T16:27:30;5.50;99.90
27848;DHT22;15212;48.830;8.730;2023-02-03T16:35:59;5.40;99.90
27848;DHT22;15212;48.830;8.730;2023-02-03T16:38:49;5.40;99.90
27848;DHT22;15212;48.830;8.730;2023-02-03T16:41:36;5.40;99.90
27848;DHT22;15212;48.830;8.730;2023-02-03T16:44:22;5.40;99.90
27848;DHT22;15212;48.830;8.730;2023-02-03T16:47:23;5.40;99.90
27848;DHT22;15212;48.830;8.730;2023-02-03T16:50:17;5.40;99.90
27848;DHT22;15212;48.830;8.730;2023-02-03T16:53:13;5.40;99.90
27848;DHT22;15212;48.830;8.730;2023-02-03T16:55:43;5.40;99.90
27848;DHT22;15212;48.830;8.730;2023-02-03T16:58:12;5.40;99.90
27848;DHT22;15212;48.830;8.730;2023-02-03T17:00:45;5.40;99.90
27848;DHT22;15212;48.830;8.730;2023-02-03T17:03:19;5.40;99.90
27848;DHT22;15212;48.830;8.730;2023-02-03T17:05:49;5.40;99.90
27848;DHT22;15212;48.830;8.730;2023-02-03T17:08:21;5.40;99.90
27848;DHT22;15212;48.830;8.730;2023-02-03T17:10:50;5.40;99.90
27848;DHT22;15212;48.830;8.730;2023-02-03T17:13:20;5.40;99.90
27848;DHT22;15212;48.830;8.730;2023-02-03T17:15:51;5.40;99.90
27848;DHT22;15212;48.830;8.730;2023-02-03T17:18:20;5.40;99.90
27848;DHT22;15212;48.830;8.730;2023-02-03T17:20:48;5.40;99.90
27848;DHT22;15212;48.830;8.730;2023-02-03T17:23:17;5.40;99.90
27848;DHT22;15212;48.830;8.730;2023-02-03T17:25:47;5.40;99.90
27848;DHT22;15212;48.830;8.730;2023-02-03T17:28:17;5.50;99.90
27848;DHT22;15212;48.830;8.730;2023-02-03T17:30:52;5.50;99.90
27848;DHT22;15212;48.830;8.730;2023-02-03T17:33:27;5.50;99.90
27848;DHT22;15212;48.830;8.730;2023-02-03T17:36:08;5.50;99.90
27848;DHT22;15212;48.830;8.730;2023-02-03T17:38:51;5.50;99.90
27848;DHT22;15212;48.830;8.730;2023-02-03T17:41:18;5.50;99.90
27848;DHT22;15212;48.830;8.730;2023-02-03T17:43:48;5.50;99.90
27848;DHT22;15212;48.830;8.730;2023-02-03T17:46:20;5.50;99.90
27848;DHT22;15212;48.830;8.730;2023-02-03T17:48:50;5.60;99.90
27848;DHT22;15212;48.830;8.730;2023-02-03T17:51:21;5.60;99.90
27848;DHT22;15212;48.830;8.730;2023-02-03T17:53:56;5.60;99.90
27848;DHT22;15212;48.830;8.730;2023-02-03T17:56:26;5.60;99.90
27848;DHT22;15212;48.830;8.730;2023-02-03T17:58:56;5.60;99.90
27848;DHT22;15212;48.830;8.730;2023-02-03T18:01:26;5.60;99.90
27848;DHT22;15212;48.830;8.730;2023-02-03T18:03:58;5.60;99.90
27848;DHT22;15212;48.830;8.730;2023-02-03T18:06:31;5.70;99.90
27848;DHT22;15212;48.830;8.730;2023-02-03T18:09:06;5.70;99.90
27848;DHT22;15212;48.830;8.730;2023-02-03T18:11:36;5.70;99.90
27848;DHT22;15212;48.830;8.730;2023-02-03T18:14:05;5.70;99.90
27848;DHT22;15212;48.830;8.730;2023-02-03T18:16:34;5.70;99.90
27848;DHT22;15212;48.830;8.730;2023-02-03T18:19:05;5.70;99.90
27848;DHT22;15212;48.830;8.730;2023-02-03T18:21:37;5.70;99.90
27848;DHT22;15212;48.830;8.730;2023-02-03T18:24:06;5.70;99.90
27848;DHT22;15212;48.830;8.730;2023-02-03T18:26:35;5.70;99.90
27848;DHT22;15212;48.830;8.730;2023-02-03T18:29:08;5.70;99.90
27848;DHT22;15212;48.830;8.730;2023-02-03T18:31:38;5.70;99.90
27848;DHT22;15212;48.830;8.730;2023-02-03T18:34:06;5.70;99.90
27848;DHT22;15212;48.830;8.730;2023-02-03T18:36:35;5.70;99.90
27848;DHT22;15212;48.830;8.730;2023-02-03T18:39:04;5.70;99.90
27848;DHT22;15212;48.830;8.730;2023-02-03T18:41:32;5.70;99.90
27848;DHT22;15212;48.830;8.730;2023-02-03T18:44:02;5.70;99.90
27848;DHT22;15212;48.830;8.730;2023-02-03T18:46:31;5.80;99.90
27848;DHT22;15212;48.830;8.730;2023-02-03T18:49:00;5.70;99.90